Time,TemperatureF,DewpointF,PressureIn,WindDirection,WindDirectionDegrees,WindSpeedMPH,WindSpeedGustMPH,Humidity,HourlyPrecipIn,Conditions,Clouds,dailyrainin,SoftwareType,DateUTC
2013-01-14 00:00:00,64.8,58.1,30.01,WSW,248,0.0,0.0,79,0.00,,---,0.00,VWS V14.01,2013-01-14 05:00:00,
2013-01-14 00:30:00,64.7,58.0,30.01,WSW,248,0.0,0.0,79,0.00,,---,0.00,VWS V14.01,2013-01-14 05:30:00,
2013-01-14 01:00:00,64.5,58.2,30.00,WSW,248,0.0,0.0,80,0.00,,---,0.00,VWS V14.01,2013-01-14 06:00:00,
2013-01-14 01:30:00,64.2,58.3,30.01,WSW,248,0.0,0.0,81,0.00,,---,0.00,VWS V14.01,2013-01-14 06:30:00,
2013-01-14 02:00:00,64.2,58.3,30.01,WSW,248,0.0,0.0,81,0.00,,---,0.00,VWS V14.01,2013-01-14 07:00:00,
2013-01-14 02:30:00,63.5,57.9,30.01,WSW,248,0.0,0.0,82,0.00,,---,0.00,VWS V14.01,2013-01-14 07:30:00,
2013-01-14 03:00:00,62.9,57.7,30.02,WSW,248,0.0,0.0,83,0.00,,---,0.00,VWS V14.01,2013-01-14 08:00:00,
2013-01-14 03:30:00,62.3,57.4,30.02,WSW,248,0.0,0.0,84,0.00,,---,0.00,VWS V14.01,2013-01-14 08:30:00,
2013-01-14 04:00:00,61.6,57.0,30.02,WSW,248,0.0,0.0,85,0.00,,---,0.00,VWS V14.01,2013-01-14 09:00:00,
2013-01-14 04:30:00,61.3,56.8,30.02,WSW,248,0.0,0.0,85,0.00,,---,0.00,VWS V14.01,2013-01-14 09:30:00,
2013-01-14 05:00:00,60.7,56.5,30.02,WSW,248,0.0,0.0,86,0.00,,---,0.00,VWS V14.01,2013-01-14 10:00:00,
2013-01-14 05:30:00,59.9,56.0,30.01,WSW,248,0.0,0.0,87,0.00,,---,0.00,VWS V14.01,2013-01-14 10:30:00,
2013-01-14 06:00:00,59.3,56.1,30.01,WSW,248,0.0,0.0,89,0.00,,---,0.00,VWS V14.01,2013-01-14 11:00:00,
2013-01-14 06:30:00,59.2,56.3,30.02,WSW,248,0.0,0.0,90,0.00,,---,0.00,VWS V14.01,2013-01-14 11:30:00,
2013-01-14 07:00:00,59.5,56.3,30.02,WSW,248,0.0,0.0,89,0.00,,---,0.00,VWS V14.01,2013-01-14 12:00:00,
2013-01-14 07:30:00,59.5,56.3,30.03,WSW,248,0.0,0.0,89,0.00,,---,0.00,VWS V14.01,2013-01-14 12:30:00,
2013-01-14 07:56:00,59.5,56.3,30.04,WSW,248,0.0,0.0,89,0.00,,---,0.00,VWS V14.01,2013-01-14 12:56:00,
2013-01-14 08:00:00,59.5,56.3,30.04,WSW,248,0.0,0.0,89,0.00,,---,0.00,VWS V14.01,2013-01-14 13:00:00,
2013-01-14 08:01:00,59.8,55.9,30.06,SSW,208,0.0,0.0,87,0.00,,---,0.00,VWS V14.01,2013-01-14 13:01:00,
2013-01-14 08:06:00,59.8,55.9,30.06,SSW,208,0.0,0.0,87,0.00,,---,0.00,VWS V14.01,2013-01-14 13:06:00,
2013-01-14 08:11:00,59.9,56.0,30.06,SSW,208,0.0,0.0,87,0.00,,---,0.00,VWS V14.01,2013-01-14 13:11:00,
2013-01-14 08:16:00,59.9,56.0,30.06,SSW,208,0.0,0.0,87,0.00,,---,0.00,VWS V14.01,2013-01-14 13:16:00,
2013-01-14 08:21:00,59.9,56.0,30.06,SSW,208,0.0,0.0,87,0.00,,---,0.00,VWS V14.01,2013-01-14 13:21:00,
2013-01-14 08:26:00,60.1,55.9,30.06,SSW,208,0.0,0.0,86,0.00,,---,0.00,VWS V14.01,2013-01-14 13:26:00,
2013-01-14 08:31:00,60.1,55.9,30.06,SSW,208,0.0,0.0,86,0.00,,---,0.00,VWS V14.01,2013-01-14 13:31:00,
2013-01-14 08:36:00,60.2,56.0,30.06,SSW,208,0.0,0.0,86,0.00,,---,0.00,VWS V14.01,2013-01-14 13:36:00,
2013-01-14 08:41:00,60.2,56.0,30.06,SSW,208,0.0,0.0,86,0.00,,---,0.00,VWS V14.01,2013-01-14 13:41:00,
2013-01-14 08:46:00,60.2,56.0,30.06,SSW,208,0.0,0.0,86,0.00,,---,0.00,VWS V14.01,2013-01-14 13:46:00,
2013-01-14 08:51:00,60.4,56.2,30.06,SSW,208,0.0,0.0,86,0.00,,---,0.00,VWS V14.01,2013-01-14 13:51:00,
2013-01-14 08:56:00,60.4,56.2,30.06,SSW,208,0.0,0.0,86,0.00,,---,0.00,VWS V14.01,2013-01-14 13:56:00,
2013-01-14 09:00:00,59.9,56.0,30.06,SSW,208,0.0,0.0,87,0.00,,---,0.00,VWS V14.01,2013-01-14 14:00:00,
2013-01-14 09:01:00,60.5,56.3,30.06,SSW,208,0.0,0.0,86,0.00,,---,0.00,VWS V14.01,2013-01-14 14:01:00,
2013-01-14 09:06:00,60.7,56.2,30.06,SSW,207,0.0,0.0,85,0.00,,---,0.00,VWS V14.01,2013-01-14 14:06:00,
2013-01-14 09:11:00,60.9,56.4,30.07,SSW,207,0.0,0.0,85,0.00,,---,0.00,VWS V14.01,2013-01-14 14:11:00,
2013-01-14 09:16:00,61.0,56.5,30.07,SSW,208,0.0,0.0,85,0.00,,---,0.00,VWS V14.01,2013-01-14 14:16:00,
2013-01-14 09:21:00,61.2,56.3,30.07,SSW,208,0.0,0.0,84,0.00,,---,0.00,VWS V14.01,2013-01-14 14:21:00,
2013-01-14 09:26:00,61.3,56.4,30.07,SSW,208,0.0,0.0,84,0.00,,---,0.00,VWS V14.01,2013-01-14 14:26:00,
2013-01-14 09:30:00,60.2,56.0,30.06,SSW,208,0.0,0.0,86,0.00,,---,0.00,VWS V14.01,2013-01-14 14:30:00,
2013-01-14 09:31:00,61.5,56.6,30.07,SSW,208,0.0,0.0,84,0.00,,---,0.00,VWS V14.01,2013-01-14 14:31:00,
2013-01-14 09:36:00,61.6,56.7,30.07,SSW,208,0.0,0.0,84,0.00,,---,0.00,VWS V14.01,2013-01-14 14:36:00,
2013-01-14 09:41:00,61.8,56.6,30.07,SSW,208,0.0,0.0,83,0.00,,---,0.00,VWS V14.01,2013-01-14 14:41:00,
2013-01-14 09:46:00,62.0,56.8,30.07,SSW,208,0.0,0.0,83,0.00,,---,0.00,VWS V14.01,2013-01-14 14:46:00,
2013-01-14 09:51:00,62.1,56.9,30.07,SSW,208,0.0,0.0,83,0.00,,---,0.00,VWS V14.01,2013-01-14 14:51:00,
2013-01-14 09:56:00,62.3,56.7,30.08,SSW,208,0.0,0.0,82,0.00,,---,0.00,VWS V14.01,2013-01-14 14:56:00,
2013-01-14 10:00:00,60.9,56.4,30.07,SSW,207,0.0,0.0,85,0.00,,---,0.00,VWS V14.01,2013-01-14 15:00:00,
2013-01-14 10:01:00,62.4,56.8,30.08,SSW,208,0.0,0.0,82,0.00,,---,0.00,VWS V14.01,2013-01-14 15:01:00,
2013-01-14 10:06:00,62.6,57.0,30.08,SSW,208,0.0,0.0,82,0.00,,---,0.00,VWS V14.01,2013-01-14 15:06:00,
2013-01-14 10:11:00,62.7,57.1,30.08,SSW,208,0.0,0.0,82,0.00,,---,0.00,VWS V14.01,2013-01-14 15:11:00,
2013-01-14 10:16:00,62.9,57.3,30.08,SSW,208,0.0,0.0,82,0.00,,---,0.00,VWS V14.01,2013-01-14 15:16:00,
2013-01-14 10:21:00,63.1,57.2,30.08,SSW,208,0.0,0.0,81,0.00,,---,0.00,VWS V14.01,2013-01-14 15:21:00,
2013-01-14 10:26:00,63.2,56.9,30.07,SSW,208,0.0,0.0,80,0.00,,---,0.00,VWS V14.01,2013-01-14 15:26:00,
2013-01-14 10:30:00,61.8,56.6,30.07,SSW,208,0.0,0.0,83,0.00,,---,0.00,VWS V14.01,2013-01-14 15:30:00,
2013-01-14 10:31:00,63.2,56.9,30.07,SSW,208,0.0,0.0,80,0.00,,---,0.00,VWS V14.01,2013-01-14 15:31:00,
2013-01-14 10:36:00,63.4,57.1,30.07,SSW,208,0.0,0.0,80,0.00,,---,0.00,VWS V14.01,2013-01-14 15:36:00,
2013-01-14 10:41:00,63.5,57.2,30.07,SSW,208,0.0,0.0,80,0.00,,---,0.00,VWS V14.01,2013-01-14 15:41:00,
2013-01-14 10:46:00,63.9,57.6,30.07,SSW,208,0.0,0.0,80,0.00,,---,0.00,VWS V14.01,2013-01-14 15:46:00,
2013-01-14 10:51:00,64.2,57.6,30.07,SSW,208,0.0,0.0,79,0.00,,---,0.00,VWS V14.01,2013-01-14 15:51:00,
2013-01-14 10:56:00,64.5,57.8,30.06,SSW,208,0.0,0.0,79,0.00,,---,0.00,VWS V14.01,2013-01-14 15:56:00,
2013-01-14 11:00:00,62.7,57.1,30.08,SSW,208,0.0,0.0,82,0.00,,---,0.00,VWS V14.01,2013-01-14 16:00:00,
2013-01-14 11:01:00,65.2,57.8,30.06,SSW,208,0.0,0.0,77,0.00,,---,0.00,VWS V14.01,2013-01-14 16:01:00,
2013-01-14 11:06:00,65.5,57.7,30.06,SSW,208,0.0,0.0,76,0.00,,---,0.00,VWS V14.01,2013-01-14 16:06:00,
2013-01-14 11:11:00,66.0,57.9,30.06,SSW,208,0.0,0.0,75,0.00,,---,0.00,VWS V14.01,2013-01-14 16:11:00,
2013-01-14 11:16:00,66.3,58.2,30.05,SSW,208,0.0,0.0,75,0.00,,---,0.00,VWS V14.01,2013-01-14 16:16:00,
2013-01-14 11:21:00,66.6,58.1,30.05,SSW,208,0.0,0.0,74,0.00,,---,0.00,VWS V14.01,2013-01-14 16:21:00,
2013-01-14 11:26:00,66.9,58.3,30.05,SSW,208,0.0,0.0,74,0.00,,---,0.00,VWS V14.01,2013-01-14 16:26:00,
2013-01-14 11:30:00,63.7,57.4,30.07,SSW,208,0.0,0.0,80,0.00,,---,0.00,VWS V14.01,2013-01-14 16:30:00,
2013-01-14 11:31:00,67.3,58.4,30.05,SSW,208,0.0,0.0,73,0.00,,---,0.00,VWS V14.01,2013-01-14 16:31:00,
2013-01-14 11:36:00,67.4,58.5,30.05,SSW,208,0.0,0.0,73,0.00,,---,0.00,VWS V14.01,2013-01-14 16:36:00,
2013-01-14 11:41:00,67.6,58.7,30.05,SSW,207,0.0,0.0,73,0.00,,---,0.00,VWS V14.01,2013-01-14 16:41:00,
2013-01-14 11:46:00,67.6,58.7,30.04,SSW,207,0.0,0.0,73,0.00,,---,0.00,VWS V14.01,2013-01-14 16:46:00,
2013-01-14 11:51:00,67.6,58.7,30.04,SSW,207,0.0,0.0,73,0.00,,---,0.00,VWS V14.01,2013-01-14 16:51:00,
2013-01-14 11:56:00,67.8,58.8,30.04,SSW,207,0.0,0.0,73,0.00,,---,0.00,VWS V14.01,2013-01-14 16:56:00,
2013-01-14 12:00:00,66.0,57.9,30.05,SSW,208,0.0,0.0,75,0.00,,---,0.00,VWS V14.01,2013-01-14 17:00:00,
2013-01-14 12:01:00,67.8,58.8,30.03,SSW,207,0.0,0.0,73,0.00,,---,0.00,VWS V14.01,2013-01-14 17:01:00,
2013-01-14 12:06:00,67.8,58.8,30.03,SSW,207,0.0,0.0,73,0.00,,---,0.00,VWS V14.01,2013-01-14 17:06:00,
2013-01-14 12:11:00,67.8,59.2,30.03,SSW,207,0.0,0.0,74,0.00,,---,0.00,VWS V14.01,2013-01-14 17:11:00,
2013-01-14 12:16:00,67.8,59.2,30.03,SSW,207,0.0,0.0,74,0.00,,---,0.00,VWS V14.01,2013-01-14 17:16:00,
2013-01-14 12:21:00,67.8,59.2,30.03,SSW,207,0.0,0.0,74,0.00,,---,0.00,VWS V14.01,2013-01-14 17:21:00,
2013-01-14 12:26:00,67.8,59.2,30.03,SSW,207,0.0,0.0,74,0.00,,---,0.00,VWS V14.01,2013-01-14 17:26:00,
2013-01-14 12:30:00,67.6,58.7,30.04,SSW,207,0.0,0.0,73,0.00,,---,0.00,VWS V14.01,2013-01-14 17:30:00,
2013-01-14 12:31:00,67.9,59.3,30.02,SSW,207,0.0,0.0,74,0.00,,---,0.00,VWS V14.01,2013-01-14 17:31:00,
2013-01-14 12:36:00,68.1,59.5,30.02,SSW,207,0.0,0.0,74,0.00,,---,0.00,VWS V14.01,2013-01-14 17:36:00,
2013-01-14 12:41:00,68.3,59.7,30.02,SSW,207,0.0,0.0,74,0.00,,---,0.00,VWS V14.01,2013-01-14 17:41:00,
2013-01-14 12:46:00,68.4,59.4,30.02,SSW,207,0.0,0.0,73,0.00,,---,0.00,VWS V14.01,2013-01-14 17:46:00,
2013-01-14 12:51:00,68.6,59.6,30.02,SSW,207,0.0,0.0,73,0.00,,---,0.00,VWS V14.01,2013-01-14 17:51:00,
2013-01-14 12:56:00,68.8,59.8,30.02,SSW,207,0.0,0.0,73,0.00,,---,0.00,VWS V14.01,2013-01-14 17:56:00,
2013-01-14 13:00:00,67.8,59.2,30.03,SSW,207,0.0,0.0,74,0.00,,---,0.00,VWS V14.01,2013-01-14 18:00:00,
2013-01-14 13:01:00,68.9,59.5,30.02,SSW,207,0.0,0.0,72,0.00,,---,0.00,VWS V14.01,2013-01-14 18:01:00,
2013-01-14 13:06:00,68.9,59.5,30.02,SSW,207,0.0,0.0,72,0.00,,---,0.00,VWS V14.01,2013-01-14 18:06:00,
2013-01-14 13:11:00,68.9,59.9,30.02,SSW,207,0.0,0.0,73,0.00,,---,0.00,VWS V14.01,2013-01-14 18:11:00,
2013-01-14 13:16:00,69.1,60.1,30.02,SSW,207,0.0,0.0,73,0.00,,---,0.00,VWS V14.01,2013-01-14 18:16:00,
2013-01-14 13:21:00,69.1,60.1,30.02,SSW,207,0.0,0.0,73,0.00,,---,0.00,VWS V14.01,2013-01-14 18:21:00,
2013-01-14 13:26:00,69.1,60.1,30.02,SSW,207,0.0,0.0,73,0.00,,---,0.00,VWS V14.01,2013-01-14 18:26:00,
2013-01-14 13:30:00,68.3,59.7,30.02,SSW,207,0.0,0.0,74,0.00,,---,0.00,VWS V14.01,2013-01-14 18:30:00,
2013-01-14 13:31:00,69.1,60.1,30.01,SSW,207,0.0,0.0,73,0.00,,---,0.00,VWS V14.01,2013-01-14 18:31:00,
2013-01-14 13:36:00,69.3,60.3,30.01,SSW,207,0.0,0.0,73,0.00,,---,0.00,VWS V14.01,2013-01-14 18:36:00,
2013-01-14 13:41:00,69.4,60.0,30.01,SSW,207,0.0,0.0,72,0.00,,---,0.00,VWS V14.01,2013-01-14 18:41:00,
2013-01-14 13:46:00,69.6,60.2,30.01,SSW,207,0.0,0.0,72,0.00,,---,0.00,VWS V14.01,2013-01-14 18:46:00,
2013-01-14 13:51:00,69.8,60.4,30.01,SSW,207,0.0,0.0,72,0.00,,---,0.00,VWS V14.01,2013-01-14 18:51:00,
2013-01-14 13:56:00,69.9,60.5,30.01,SSW,207,0.0,0.0,72,0.00,,---,0.00,VWS V14.01,2013-01-14 18:56:00,
2013-01-14 14:00:00,69.1,60.1,30.02,SSW,207,0.0,0.0,73,0.00,,---,0.00,VWS V14.01,2013-01-14 19:00:00,
2013-01-14 14:01:00,70.1,60.3,30.01,SSW,207,0.0,0.0,71,0.00,,---,0.00,VWS V14.01,2013-01-14 19:01:00,
2013-01-14 14:06:00,70.3,60.5,30.01,SSW,207,0.0,0.0,71,0.00,,---,0.00,VWS V14.01,2013-01-14 19:06:00,
2013-01-14 14:11:00,70.3,60.5,30.01,SSW,207,0.0,0.0,71,0.00,,---,0.00,VWS V14.01,2013-01-14 19:11:00,
2013-01-14 14:16:00,70.4,60.6,30.01,SSW,207,0.0,0.0,71,0.00,,---,0.00,VWS V14.01,2013-01-14 19:16:00,
2013-01-14 14:21:00,70.4,60.6,30.01,SSW,207,0.0,0.0,71,0.00,,---,0.00,VWS V14.01,2013-01-14 19:21:00,
2013-01-14 14:26:00,70.4,60.6,30.01,SSW,207,0.0,0.0,71,0.00,,---,0.00,VWS V14.01,2013-01-14 19:26:00,
2013-01-14 14:30:00,69.4,60.0,30.01,SSW,207,0.0,0.0,72,0.00,,---,0.00,VWS V14.01,2013-01-14 19:30:00,
2013-01-14 14:31:00,70.6,60.8,30.01,SSW,207,0.0,0.0,71,0.00,,---,0.00,VWS V14.01,2013-01-14 19:31:00,
2013-01-14 14:36:00,70.8,60.9,30.01,SSW,207,0.0,0.0,71,0.00,,---,0.00,VWS V14.01,2013-01-14 19:36:00,
2013-01-14 14:41:00,70.9,61.0,30.01,SSW,207,0.0,0.0,71,0.00,,---,0.00,VWS V14.01,2013-01-14 19:41:00,
2013-01-14 14:46:00,71.1,61.2,30.01,SSW,207,0.0,0.0,71,0.00,,---,0.00,VWS V14.01,2013-01-14 19:46:00,
2013-01-14 14:51:00,71.1,61.2,30.01,SSW,207,0.0,0.0,71,0.00,,---,0.00,VWS V14.01,2013-01-14 19:51:00,
2013-01-14 14:56:00,71.1,61.2,30.01,SSW,207,0.0,0.0,71,0.00,,---,0.00,VWS V14.01,2013-01-14 19:56:00,
2013-01-14 15:00:00,70.4,60.6,30.01,SSW,207,0.0,0.0,71,0.00,,---,0.00,VWS V14.01,2013-01-14 20:00:00,
2013-01-14 15:01:00,71.1,61.2,30.02,SSW,207,0.0,0.0,71,0.00,,---,0.00,VWS V14.01,2013-01-14 20:01:00,
2013-01-14 15:06:00,71.1,61.2,30.02,SSW,207,0.0,0.0,71,0.00,,---,0.00,VWS V14.01,2013-01-14 20:06:00,
2013-01-14 15:11:00,71.1,61.2,30.02,SSW,207,0.0,0.0,71,0.00,,---,0.00,VWS V14.01,2013-01-14 20:11:00,
2013-01-14 15:16:00,71.1,61.2,30.02,SSW,207,0.0,0.0,71,0.00,,---,0.00,VWS V14.01,2013-01-14 20:16:00,
2013-01-14 15:21:00,71.1,61.2,30.02,SSW,207,0.0,0.0,71,0.00,,---,0.00,VWS V14.01,2013-01-14 20:21:00,
2013-01-14 15:26:00,71.3,61.4,30.02,SSW,207,0.0,0.0,71,0.00,,---,0.00,VWS V14.01,2013-01-14 20:26:00,
2013-01-14 15:30:00,71.1,61.2,30.01,SSW,207,0.0,0.0,71,0.00,,---,0.00,VWS V14.01,2013-01-14 20:30:00,
2013-01-14 15:31:00,71.3,61.4,30.02,SSW,207,0.0,0.0,71,0.00,,---,0.00,VWS V14.01,2013-01-14 20:31:00,
2013-01-14 15:36:00,71.3,61.8,30.02,SSW,207,0.0,0.0,72,0.00,,---,0.00,VWS V14.01,2013-01-14 20:36:00,
2013-01-14 15:41:00,71.3,61.8,30.02,SSW,207,0.0,0.0,72,0.00,,---,0.00,VWS V14.01,2013-01-14 20:41:00,
2013-01-14 15:46:00,71.3,62.2,30.02,SSW,207,0.0,0.0,73,0.00,,---,0.00,VWS V14.01,2013-01-14 20:46:00,
2013-01-14 15:51:00,71.1,62.8,30.02,SSW,207,0.0,0.0,75,0.00,,---,0.00,VWS V14.01,2013-01-14 20:51:00,
2013-01-14 15:56:00,70.9,62.6,30.02,SSW,207,0.0,0.0,75,0.00,,---,0.00,VWS V14.01,2013-01-14 20:56:00,
2013-01-14 16:00:00,71.1,61.2,30.02,SSW,207,0.0,0.0,71,0.00,,---,0.00,VWS V14.01,2013-01-14 21:00:00,
2013-01-14 16:01:00,70.8,62.5,30.02,SSW,207,0.0,0.0,75,0.00,,---,0.00,VWS V14.01,2013-01-14 21:01:00,
2013-01-14 16:06:00,70.6,62.7,30.02,SSW,207,0.0,0.0,76,0.00,,---,0.00,VWS V14.01,2013-01-14 21:06:00,
2013-01-14 16:11:00,70.3,62.4,30.02,SSW,207,0.0,0.0,76,0.00,,---,0.00,VWS V14.01,2013-01-14 21:11:00,
2013-01-14 16:16:00,69.9,61.6,30.03,SSW,207,0.0,0.0,75,0.00,,---,0.00,VWS V14.01,2013-01-14 21:16:00,
2013-01-14 16:21:00,69.9,62.0,30.03,SSW,207,0.0,0.0,76,0.00,,---,0.00,VWS V14.01,2013-01-14 21:21:00,
2013-01-14 16:26:00,69.8,62.3,30.03,SSW,207,0.0,0.0,77,0.00,,---,0.00,VWS V14.01,2013-01-14 21:26:00,
2013-01-14 16:30:00,71.3,61.8,30.02,SSW,207,0.0,0.0,72,0.00,,---,0.00,VWS V14.01,2013-01-14 21:30:00,
2013-01-14 16:31:00,69.6,62.1,30.03,SSW,207,0.0,0.0,77,0.00,,---,0.00,VWS V14.01,2013-01-14 21:31:00,
2013-01-14 16:36:00,69.4,62.2,30.03,SSW,207,0.0,0.0,78,0.00,,---,0.00,VWS V14.01,2013-01-14 21:36:00,
2013-01-14 16:41:00,69.4,62.2,30.03,SSW,207,0.0,0.0,78,0.00,,---,0.00,VWS V14.01,2013-01-14 21:41:00,
2013-01-14 16:46:00,69.3,62.2,30.03,SSW,207,0.0,0.0,78,0.00,,---,0.00,VWS V14.01,2013-01-14 21:46:00,
2013-01-14 16:51:00,69.1,62.0,30.03,SSW,207,0.0,0.0,78,0.00,,---,0.00,VWS V14.01,2013-01-14 21:51:00,
2013-01-14 16:56:00,69.1,62.3,30.03,SSW,207,0.0,0.0,79,0.00,,---,0.00,VWS V14.01,2013-01-14 21:56:00,
2013-01-14 17:00:00,70.1,62.2,30.03,SSW,207,0.0,0.0,76,0.00,,---,0.00,VWS V14.01,2013-01-14 22:00:00,
2013-01-14 17:01:00,68.9,62.1,30.04,SSW,207,0.0,0.0,79,0.00,,---,0.00,VWS V14.01,2013-01-14 22:01:00,
2013-01-14 17:06:00,68.8,62.0,30.04,SSW,207,0.0,0.0,79,0.00,,---,0.00,VWS V14.01,2013-01-14 22:06:00,
2013-01-14 17:11:00,68.6,61.8,30.04,SSW,207,0.0,0.0,79,0.00,,---,0.00,VWS V14.01,2013-01-14 22:11:00,
2013-01-14 17:16:00,68.6,61.8,30.04,SSW,207,0.0,0.0,79,0.00,,---,0.00,VWS V14.01,2013-01-14 22:16:00,
2013-01-14 17:21:00,68.4,61.6,30.04,SSW,207,0.0,0.0,79,0.00,,---,0.00,VWS V14.01,2013-01-14 22:21:00,
2013-01-14 17:26:00,68.4,61.6,30.04,SSW,207,0.0,0.0,79,0.00,,---,0.00,VWS V14.01,2013-01-14 22:26:00,
2013-01-14 17:30:00,69.4,62.2,30.03,SSW,207,0.0,0.0,78,0.00,,---,0.00,VWS V14.01,2013-01-14 22:30:00,
2013-01-14 17:31:00,68.3,61.9,30.04,SSW,207,0.0,0.0,80,0.00,,---,0.00,VWS V14.01,2013-01-14 22:31:00,
2013-01-14 17:36:00,68.1,61.7,30.04,SSW,207,0.0,0.0,80,0.00,,---,0.00,VWS V14.01,2013-01-14 22:36:00,
2013-01-14 17:41:00,67.9,61.5,30.04,SSW,207,0.0,0.0,80,0.00,,---,0.00,VWS V14.01,2013-01-14 22:41:00,
2013-01-14 17:46:00,67.8,61.8,30.04,SSW,207,0.0,0.0,81,0.00,,---,0.00,VWS V14.01,2013-01-14 22:46:00,
2013-01-14 17:51:00,67.6,61.6,30.04,SSW,207,0.0,0.0,81,0.00,,---,0.00,VWS V14.01,2013-01-14 22:51:00,
2013-01-14 17:56:00,67.4,61.7,30.04,SSW,207,0.0,0.0,82,0.00,,---,0.00,VWS V14.01,2013-01-14 22:56:00,
2013-01-14 18:00:00,68.6,61.8,30.04,SSW,207,0.0,0.0,79,0.00,,---,0.00,VWS V14.01,2013-01-14 23:00:00,
2013-01-14 18:01:00,67.3,62.0,30.05,SSW,207,0.0,0.0,83,0.01,,---,0.01,VWS V14.01,2013-01-14 23:01:00,
2013-01-14 18:06:00,67.1,62.5,30.05,SSW,207,0.0,0.0,85,0.01,,---,0.01,VWS V14.01,2013-01-14 23:06:00,
2013-01-14 18:11:00,66.9,62.2,30.05,SSW,207,0.0,0.0,85,0.01,,---,0.01,VWS V14.01,2013-01-14 23:11:00,
2013-01-14 18:16:00,66.8,62.5,30.05,SSW,207,0.0,0.0,86,0.01,,---,0.01,VWS V14.01,2013-01-14 23:16:00,
2013-01-14 18:21:00,66.6,62.3,30.05,SSW,207,0.0,0.0,86,0.01,,---,0.01,VWS V14.01,2013-01-14 23:21:00,
2013-01-14 18:26:00,66.4,62.4,30.05,SSW,207,0.0,0.0,87,0.01,,---,0.01,VWS V14.01,2013-01-14 23:26:00,
2013-01-14 18:30:00,67.9,61.5,30.04,SSW,207,0.0,0.0,80,0.00,,---,0.00,VWS V14.01,2013-01-14 23:30:00,
2013-01-14 18:31:00,66.3,62.3,30.05,SSW,207,0.0,0.0,87,0.01,,---,0.01,VWS V14.01,2013-01-14 23:31:00,
2013-01-14 18:36:00,66.0,62.0,30.05,SSW,207,0.0,0.0,87,0.01,,---,0.01,VWS V14.01,2013-01-14 23:36:00,
2013-01-14 18:41:00,65.8,62.2,30.05,SSW,207,0.0,0.0,88,0.01,,---,0.01,VWS V14.01,2013-01-14 23:41:00,
2013-01-14 18:46:00,65.6,62.0,30.05,SSW,207,0.0,0.0,88,0.01,,---,0.01,VWS V14.01,2013-01-14 23:46:00,
2013-01-14 18:51:00,65.5,62.2,30.05,SSW,207,0.0,0.0,89,0.01,,---,0.01,VWS V14.01,2013-01-14 23:51:00,
2013-01-14 18:56:00,65.5,62.2,30.05,SSW,207,0.0,0.0,89,0.01,,---,0.01,VWS V14.01,2013-01-14 23:56:00,
2013-01-14 19:00:00,66.9,62.2,30.05,SSW,207,0.0,0.0,85,0.01,,---,0.01,VWS V14.01,2013-01-15 00:00:00,
2013-01-14 19:01:00,65.3,62.0,30.05,SSW,207,0.0,0.0,89,0.01,,---,0.01,VWS V14.01,2013-01-15 00:01:00,
2013-01-14 19:06:00,65.2,62.2,30.05,SSW,207,0.0,0.0,90,0.01,,---,0.01,VWS V14.01,2013-01-15 00:06:00,
2013-01-14 19:11:00,65.0,62.0,30.05,SSW,207,0.0,0.0,90,0.01,,---,0.01,VWS V14.01,2013-01-15 00:11:00,
2013-01-14 19:16:00,65.0,62.0,30.05,SSW,207,0.0,0.0,90,0.00,,---,0.01,VWS V14.01,2013-01-15 00:16:00,
2013-01-14 19:21:00,64.8,62.1,30.05,SSW,207,0.0,0.0,91,0.00,,---,0.01,VWS V14.01,2013-01-15 00:21:00,
2013-01-14 19:26:00,64.8,62.1,30.05,SSW,207,0.0,0.0,91,0.00,,---,0.01,VWS V14.01,2013-01-15 00:26:00,
2013-01-14 19:30:00,65.8,62.2,30.05,SSW,207,0.0,0.0,88,0.01,,---,0.01,VWS V14.01,2013-01-15 00:30:00,
2013-01-14 19:31:00,64.8,62.1,30.04,SSW,207,0.0,0.0,91,0.00,,---,0.01,VWS V14.01,2013-01-15 00:31:00,
2013-01-14 19:36:00,64.7,62.0,30.04,SSW,207,0.0,0.0,91,0.00,,---,0.01,VWS V14.01,2013-01-15 00:36:00,
2013-01-14 19:41:00,64.7,62.0,30.04,SSW,207,0.0,0.0,91,0.00,,---,0.01,VWS V14.01,2013-01-15 00:41:00,
2013-01-14 19:46:00,64.5,61.8,30.04,SSW,207,0.0,0.0,91,0.00,,---,0.01,VWS V14.01,2013-01-15 00:46:00,
2013-01-14 19:51:00,64.5,61.8,30.04,SSW,207,0.0,0.0,91,0.00,,---,0.01,VWS V14.01,2013-01-15 00:51:00,
2013-01-14 19:56:00,64.5,61.8,30.04,SSW,207,0.0,0.0,91,0.00,,---,0.01,VWS V14.01,2013-01-15 00:56:00,
2013-01-14 20:00:00,65.0,62.0,30.05,SSW,207,0.0,0.0,90,0.01,,---,0.01,VWS V14.01,2013-01-15 01:00:00,
2013-01-14 20:01:00,64.3,61.9,30.04,SSW,207,0.0,0.0,92,0.00,,---,0.01,VWS V14.01,2013-01-15 01:01:00,
2013-01-14 20:06:00,64.3,61.9,30.04,SSW,207,0.0,0.0,92,0.00,,---,0.01,VWS V14.01,2013-01-15 01:06:00,
2013-01-14 20:11:00,64.3,61.9,30.04,SSW,207,0.0,0.0,92,0.00,,---,0.01,VWS V14.01,2013-01-15 01:11:00,
2013-01-14 20:16:00,64.3,61.9,30.04,SSW,207,0.0,0.0,92,0.00,,---,0.01,VWS V14.01,2013-01-15 01:16:00,
2013-01-14 20:21:00,64.2,61.8,30.04,SSW,207,0.0,0.0,92,0.00,,---,0.01,VWS V14.01,2013-01-15 01:21:00,
2013-01-14 20:26:00,64.2,61.8,30.04,SSW,207,0.0,0.0,92,0.00,,---,0.01,VWS V14.01,2013-01-15 01:26:00,
2013-01-14 20:30:00,64.7,62.0,30.04,SSW,207,0.0,0.0,91,0.00,,---,0.01,VWS V14.01,2013-01-15 01:30:00,
2013-01-14 20:31:00,64.2,61.8,30.03,SSW,207,0.0,0.0,92,0.00,,---,0.01,VWS V14.01,2013-01-15 01:31:00,
2013-01-14 20:36:00,64.2,61.8,30.03,SSW,207,0.0,0.0,92,0.00,,---,0.01,VWS V14.01,2013-01-15 01:36:00,
2013-01-14 20:41:00,64.2,61.8,30.03,SSW,207,0.0,0.0,92,0.00,,---,0.01,VWS V14.01,2013-01-15 01:41:00,
2013-01-14 20:46:00,64.2,61.8,30.03,SSW,207,0.0,0.0,92,0.00,,---,0.01,VWS V14.01,2013-01-15 01:46:00,
2013-01-14 20:51:00,64.0,61.6,30.03,SSW,207,0.0,0.0,92,0.00,,---,0.01,VWS V14.01,2013-01-15 01:51:00,
2013-01-14 20:56:00,64.0,61.6,30.03,SSW,207,0.0,0.0,92,0.00,,---,0.01,VWS V14.01,2013-01-15 01:56:00,
2013-01-14 21:00:00,64.3,61.9,30.04,SSW,207,0.0,0.0,92,0.00,,---,0.01,VWS V14.01,2013-01-15 02:00:00,
2013-01-14 21:01:00,64.0,61.6,30.03,SSW,207,0.0,0.0,92,0.00,,---,0.01,VWS V14.01,2013-01-15 02:01:00,
2013-01-14 21:06:00,64.0,61.6,30.03,SSW,207,0.0,0.0,92,0.00,,---,0.01,VWS V14.01,2013-01-15 02:06:00,
2013-01-14 21:11:00,63.9,61.5,30.03,SSW,207,0.0,0.0,92,0.00,,---,0.01,VWS V14.01,2013-01-15 02:11:00,
2013-01-14 21:16:00,63.9,61.5,30.03,SSW,207,0.0,0.0,92,0.00,,---,0.01,VWS V14.01,2013-01-15 02:16:00,
2013-01-14 21:21:00,63.7,61.3,30.03,SSW,207,0.0,0.0,92,0.00,,---,0.01,VWS V14.01,2013-01-15 02:21:00,
2013-01-14 21:26:00,63.7,61.3,30.03,SSW,207,0.0,0.0,92,0.00,,---,0.01,VWS V14.01,2013-01-15 02:26:00,
2013-01-14 21:30:00,64.2,61.8,30.03,SSW,207,0.0,0.0,92,0.00,,---,0.01,VWS V14.01,2013-01-15 02:30:00,
2013-01-14 21:31:00,63.5,61.1,30.03,SSW,207,0.0,0.0,92,0.00,,---,0.01,VWS V14.01,2013-01-15 02:31:00,
2013-01-14 21:35:00,63.5,61.1,30.03,SSW,207,0.0,0.0,92,0.00,,---,0.01,VWS V14.01,2013-01-15 02:35:00,
2013-01-14 21:40:00,63.4,61.0,30.03,SSW,207,0.0,0.0,92,0.00,,---,0.01,VWS V14.01,2013-01-15 02:40:00,
2013-01-14 21:45:00,63.4,61.0,30.03,SSW,207,0.0,0.0,92,0.00,,---,0.01,VWS V14.01,2013-01-15 02:45:00,
2013-01-14 21:50:00,63.4,61.0,30.03,SSW,207,0.0,0.0,92,0.00,,---,0.01,VWS V14.01,2013-01-15 02:50:00,
2013-01-14 21:55:00,63.2,60.8,30.03,SSW,207,0.0,0.0,92,0.00,,---,0.01,VWS V14.01,2013-01-15 02:55:00,
2013-01-14 22:00:00,63.2,60.8,30.03,SSW,207,0.0,0.0,92,0.00,,---,0.01,VWS V14.01,2013-01-15 03:00:00,
2013-01-14 22:05:00,63.2,60.8,30.03,SSW,207,0.0,0.0,92,0.00,,---,0.01,VWS V14.01,2013-01-15 03:05:00,
2013-01-14 22:10:00,63.2,61.2,30.03,SSW,207,0.0,0.0,93,0.00,,---,0.01,VWS V14.01,2013-01-15 03:10:00,
2013-01-14 22:15:00,63.2,61.2,30.02,SSW,207,0.0,0.0,93,0.00,,---,0.01,VWS V14.01,2013-01-15 03:15:00,
2013-01-14 22:20:00,63.2,61.2,30.02,SSW,207,0.0,0.0,93,0.00,,---,0.01,VWS V14.01,2013-01-15 03:20:00,
2013-01-14 22:25:00,63.2,61.2,30.02,SSW,207,0.0,0.0,93,0.00,,---,0.01,VWS V14.01,2013-01-15 03:25:00,
2013-01-14 22:30:00,63.1,61.0,30.02,SSW,207,0.0,0.0,93,0.00,,---,0.01,VWS V14.01,2013-01-15 03:30:00,
2013-01-14 22:35:00,62.9,60.8,30.02,SSW,207,0.0,0.0,93,0.00,,---,0.01,VWS V14.01,2013-01-15 03:35:00,
2013-01-14 22:40:00,62.9,60.8,30.02,SSW,207,0.0,0.0,93,0.00,,---,0.01,VWS V14.01,2013-01-15 03:40:00,
2013-01-14 22:45:00,62.7,60.7,30.03,SSW,207,0.0,0.0,93,0.00,,---,0.01,VWS V14.01,2013-01-15 03:45:00,
2013-01-14 22:50:00,62.6,60.5,30.03,SSW,207,0.0,0.0,93,0.00,,---,0.01,VWS V14.01,2013-01-15 03:50:00,
2013-01-14 22:55:00,62.6,60.5,30.03,SSW,207,0.0,0.0,93,0.00,,---,0.01,VWS V14.01,2013-01-15 03:55:00,
2013-01-14 23:00:00,62.6,60.5,30.03,SSW,207,0.0,0.0,93,0.00,,---,0.01,VWS V14.01,2013-01-15 04:00:00,
2013-01-14 23:05:00,62.4,60.3,30.03,SSW,207,0.0,0.0,93,0.00,,---,0.01,VWS V14.01,2013-01-15 04:05:00,
2013-01-14 23:10:00,62.4,60.3,30.03,SSW,207,0.0,0.0,93,0.00,,---,0.01,VWS V14.01,2013-01-15 04:10:00,
2013-01-14 23:15:00,62.3,60.2,30.04,SSW,207,0.0,0.0,93,0.00,,---,0.00,VWS V14.01,2013-01-15 04:15:00,
2013-01-14 23:20:00,62.1,60.1,30.04,SSW,207,0.0,0.0,93,0.00,,---,0.00,VWS V14.01,2013-01-15 04:20:00,
2013-01-14 23:25:00,62.1,60.1,30.04,SSW,207,0.0,0.0,93,0.00,,---,0.00,VWS V14.01,2013-01-15 04:25:00,
2013-01-14 23:30:00,62.1,60.1,30.03,SSW,207,0.0,0.0,93,0.00,,---,0.00,VWS V14.01,2013-01-15 04:30:00,
2013-01-14 23:35:00,62.1,60.1,30.03,SSW,207,0.0,0.0,93,0.00,,---,0.00,VWS V14.01,2013-01-15 04:35:00,
2013-01-14 23:40:00,62.1,60.1,30.03,SSW,207,0.0,0.0,93,0.00,,---,0.00,VWS V14.01,2013-01-15 04:40:00,
2013-01-14 23:45:00,62.1,60.1,30.04,SSW,207,0.0,0.0,93,0.00,,---,0.00,VWS V14.01,2013-01-15 04:45:00,
2013-01-14 23:50:00,62.1,60.1,30.04,SSW,207,0.0,0.0,93,0.00,,---,0.00,VWS V14.01,2013-01-15 04:50:00,
2013-01-14 23:55:00,62.0,60.0,30.04,SSW,207,0.0,0.0,93,0.00,,---,0.00,VWS V14.01,2013-01-15 04:55:00,